Tyringham, Massachusetts
Current Conditions -  °F | °C
As of 12:54 PM on Wednesday 28 Jan 2015 (Local Time) from KPSF Reporting Station
Clear Clear  
Wind Chill:   Ceiling: Unl
Heat Index: 18°   Visibility: 10mi
Dew Point:   Wind: 12mph
Humidity: 57%   Direction: 330°NNW
Pressure: 29.99"   Gusts: 20mph
Location:  42.25°N, 73.2°W
Report Text: KPSF 281754Z AUTO 33010G17KT 10SM CLR M08/M15 A2999 RMK AO2 SLP181 T10781150 11078 21128 51009
Loading
Personal Weather Stations






























Interactive Weather Map New forecast layout! Learn more

10-Day Weather Forecast

Advertisements
Track Severe Weather on mobile